createdAt,value
2023-01-29T00:28:19.019Z,71.91
2023-01-29T00:33:21.464Z,74.83
2023-01-29T00:38:24.952Z,74.89
2023-01-29T00:43:45.741Z,75.83
2023-01-29T00:48:48.159Z,73.73
2023-01-29T01:09:45.521Z,73.50
2023-01-29T01:14:48.773Z,73.58
2023-01-29T01:19:51.110Z,74.35
2023-01-29T01:24:53.529Z,72.53
2023-01-29T01:29:55.871Z,73.34
2023-01-29T01:34:58.106Z,71.64
2023-01-29T01:40:00.496Z,71.74
2023-01-29T01:45:10.362Z,70.92
2023-01-29T01:50:37.799Z,70.76
2023-01-29T01:55:53.025Z,71.62
2023-01-29T02:00:56.165Z,71.94
2023-01-29T02:06:19.243Z,71.32
2023-01-29T02:11:21.972Z,74.19
2023-01-29T02:16:24.394Z,73.60
2023-01-29T02:21:45.109Z,71.73
2023-01-29T02:27:33.573Z,74.88
2023-01-29T02:40:36.520Z,73.58
2023-01-29T02:45:51.081Z,74.42
2023-01-29T02:51:05.673Z,74.65
2023-01-29T02:56:22.006Z,74.28
2023-01-29T03:01:33.269Z,72.92
2023-01-29T03:06:48.175Z,72.77
2023-01-29T03:11:58.906Z,71.96
2023-01-29T03:17:03.630Z,75.27
2023-01-29T03:22:08.709Z,75.38
2023-01-29T03:27:33.377Z,74.21
2023-01-29T03:32:38.672Z,73.53
2023-01-29T03:37:47.792Z,74.63
2023-01-29T03:43:19.613Z,74.96
2023-01-29T03:49:18.975Z,73.43
2023-01-29T03:55:01.023Z,74.01
2023-01-29T04:00:22.986Z,73.83
2023-01-29T04:06:05.721Z,72.98
2023-01-29T04:11:16.177Z,71.41
2023-01-29T04:16:24.806Z,72.96
2023-01-29T04:22:32.028Z,71.38
2023-01-29T04:28:01.960Z,72.17
2023-01-29T04:33:42.002Z,73.92
2023-01-29T04:39:24.877Z,73.51
2023-01-29T04:44:38.822Z,75.48
2023-01-29T04:50:01.045Z,75.85
2023-01-29T04:55:32.138Z,75.53
2023-01-29T05:00:44.220Z,74.72
2023-01-29T05:05:49.451Z,75.41
2023-01-29T05:10:56.273Z,72.39
2023-01-29T05:16:07.991Z,72.40
2023-01-29T05:21:11.050Z,73.69
2023-01-29T05:26:31.931Z,73.38
2023-01-29T05:31:34.261Z,75.15
2023-01-29T05:36:36.511Z,75.70
2023-01-29T05:41:38.875Z,75.94
2023-01-29T05:46:41.237Z,73.58
2023-01-29T05:51:43.701Z,71.87
2023-01-29T05:56:46.014Z,71.68
2023-01-29T06:01:48.258Z,73.22
2023-01-29T06:06:50.484Z,75.04
2023-01-29T06:11:52.601Z,72.74
2023-01-29T06:16:54.854Z,74.70
2023-01-29T06:21:57.165Z,72.11
2023-01-29T06:26:59.523Z,74.45
2023-01-29T06:32:01.777Z,72.71
2023-01-29T06:37:04.286Z,73.51
2023-01-29T06:42:06.588Z,74.92
2023-01-29T06:47:08.898Z,73.88
2023-01-29T06:52:11.178Z,71.28
2023-01-29T06:57:13.506Z,70.52
2023-01-29T07:02:15.832Z,75.99
2023-01-29T07:07:18.486Z,74.90
2023-01-29T07:12:20.761Z,72.39
2023-01-29T07:17:23.065Z,76.08
2023-01-29T07:22:25.220Z,76.84
2023-01-29T07:27:28.296Z,74.06
2023-01-29T07:32:30.404Z,73.70
2023-01-29T07:37:32.717Z,74.31
2023-01-29T07:42:35.564Z,71.86
2023-01-29T07:47:37.942Z,74.99
2023-01-29T07:52:40.282Z,73.38
2023-01-29T07:57:42.593Z,73.00
2023-01-29T08:02:44.882Z,74.76
2023-01-29T08:08:05.332Z,75.88
2023-01-29T08:13:09.788Z,71.18
2023-01-29T08:18:13.051Z,72.81
2023-01-29T08:23:16.876Z,69.87
2023-01-29T08:28:19.274Z,73.10
2023-01-29T08:33:29.732Z,72.28
2023-01-29T08:38:36.917Z,73.58
2023-01-29T08:43:39.845Z,75.08
2023-01-29T08:48:42.212Z,73.84
2023-01-29T08:53:44.566Z,73.68
2023-01-29T08:58:46.874Z,74.08
2023-01-29T09:03:50.350Z,72.84
2023-01-29T09:08:52.966Z,73.91
2023-01-29T09:13:55.196Z,72.86
2023-01-29T09:18:57.444Z,71.24
2023-01-29T09:23:59.762Z,72.54
2023-01-29T09:29:02.079Z,73.42
2023-01-29T09:34:04.377Z,74.16
2023-01-29T09:39:07.036Z,73.36
2023-01-29T09:44:24.615Z,73.45
2023-01-29T09:49:36.013Z,71.70
2023-01-29T09:54:58.073Z,71.09
2023-01-29T10:00:00.542Z,71.51
2023-01-29T10:05:29.799Z,71.30
2023-01-29T10:10:47.667Z,67.03
2023-01-29T10:16:18.794Z,69.39
2023-01-29T10:21:46.554Z,69.19
2023-01-29T10:26:50.602Z,69.24
2023-01-29T10:32:05.204Z,69.30
2023-01-29T10:37:24.227Z,67.60
2023-01-29T10:42:43.031Z,69.90
2023-01-29T10:48:44.916Z,70.58
2023-01-29T10:54:14.998Z,67.63
2023-01-29T10:59:48.030Z,66.27
2023-01-29T11:04:50.321Z,63.97
2023-01-29T11:10:10.742Z,64.07
2023-01-29T11:15:26.901Z,63.15
2023-01-29T11:20:31.623Z,65.07
2023-01-29T11:25:33.796Z,62.74
2023-01-29T11:30:41.367Z,63.31
2023-01-29T11:35:43.794Z,62.99
2023-01-29T11:40:46.365Z,61.46
2023-01-29T11:45:59.901Z,60.82
2023-01-29T11:51:04.306Z,59.90
2023-01-29T11:56:20.850Z,57.50
2023-01-29T12:01:35.011Z,60.60
2023-01-29T12:06:43.022Z,57.60
2023-01-29T12:11:45.419Z,60.40
2023-01-29T12:17:00.891Z,60.20
2023-01-29T12:22:46.750Z,61.07
2023-01-29T12:27:59.913Z,60.62
2023-01-29T12:33:24.177Z,56.96
2023-01-29T12:38:26.738Z,55.86
2023-01-29T12:43:46.848Z,57.77
2023-01-29T12:48:51.262Z,58.30
2023-01-29T12:54:13.192Z,57.00
2023-01-29T12:59:30.525Z,57.24
2023-01-29T13:04:58.167Z,56.57
2023-01-29T13:10:12.383Z,56.43
2023-01-29T13:15:26.565Z,57.20
2023-01-29T13:20:35.425Z,57.38
2023-01-29T13:25:38.575Z,58.12
2023-01-29T13:30:40.961Z,57.79
2023-01-29T13:35:46.767Z,56.11
2023-01-29T13:40:50.939Z,55.69
2023-01-29T13:45:54.790Z,55.27
2023-01-29T13:51:02.309Z,57.85
2023-01-29T13:56:33.884Z,61.59
2023-01-29T14:01:48.229Z,59.62
2023-01-29T14:07:06.451Z,59.40
2023-01-29T14:12:41.005Z,61.14
2023-01-29T14:18:09.032Z,59.79
2023-01-29T14:23:28.749Z,59.60
2023-01-29T14:28:34.643Z,62.20
2023-01-29T14:33:41.868Z,62.61
2023-01-29T14:38:52.591Z,61.16
2023-01-29T14:44:45.942Z,61.58
2023-01-29T14:49:59.237Z,62.60
2023-01-29T14:55:25.178Z,62.96
2023-01-29T15:00:32.003Z,62.03
2023-01-29T15:05:38.090Z,62.00
2023-01-29T15:11:13.359Z,62.95
2023-01-29T15:16:42.675Z,62.68
2023-01-29T15:22:13.168Z,61.69
2023-01-29T15:27:20.804Z,61.94
2023-01-29T15:32:36.560Z,63.14
2023-01-29T15:37:40.656Z,63.62
2023-01-29T15:42:48.560Z,63.28
2023-01-29T15:47:52.132Z,64.40
2023-01-29T15:53:03.847Z,63.67
2023-01-29T15:58:11.680Z,63.06
2023-01-29T16:03:16.156Z,62.79
2023-01-29T16:08:20.431Z,63.20
2023-01-29T16:13:29.566Z,63.63
2023-01-29T16:18:47.735Z,63.75
2023-01-29T16:24:10.214Z,64.30
2023-01-29T16:29:25.168Z,64.67
2023-01-29T16:34:36.603Z,65.12
2023-01-29T16:39:48.009Z,64.26
2023-01-29T16:44:56.174Z,64.02
2023-01-29T16:50:02.385Z,63.28
2023-01-29T16:55:18.730Z,63.86
2023-01-29T17:00:29.842Z,64.17
2023-01-29T17:05:37.161Z,66.01
2023-01-29T17:10:39.365Z,65.22
2023-01-29T17:15:47.401Z,65.28
2023-01-29T17:20:50.946Z,67.62
2023-01-29T17:25:53.349Z,67.79
2023-01-29T17:31:05.838Z,65.86
2023-01-29T17:36:13.676Z,64.94
2023-01-29T17:41:26.241Z,66.33
2023-01-29T17:46:28.454Z,65.90
2023-01-29T17:51:30.992Z,67.53
2023-01-29T17:56:33.155Z,66.13
2023-01-29T18:01:35.304Z,66.69
2023-01-29T18:06:38.571Z,68.05
2023-01-29T18:11:41.536Z,68.52
2023-01-29T18:16:44.950Z,68.23
2023-01-29T18:21:48.554Z,71.09
2023-01-29T18:26:51.275Z,69.94
2023-01-29T18:31:53.525Z,68.18
2023-01-29T18:36:55.817Z,70.57
2023-01-29T18:41:58.097Z,70.29
2023-01-29T18:47:00.215Z,72.59
2023-01-29T18:52:02.337Z,71.65
2023-01-29T18:57:13.843Z,72.66
2023-01-29T19:02:27.277Z,69.79
2023-01-29T19:07:29.602Z,70.30
2023-01-29T19:12:31.763Z,73.41
2023-01-29T19:17:34.179Z,73.41
2023-01-29T19:22:36.410Z,72.00
2023-01-29T19:27:38.787Z,70.84
2023-01-29T19:32:41.454Z,69.10
2023-01-29T19:37:43.754Z,69.21
2023-01-29T19:42:47.916Z,69.35
2023-01-29T19:47:50.535Z,69.78
2023-01-29T19:52:53.459Z,68.07
2023-01-29T19:57:58.556Z,69.03
2023-01-29T20:03:01.297Z,70.42
2023-01-29T20:08:03.488Z,69.70
2023-01-29T20:13:06.023Z,71.25
2023-01-29T20:18:11.813Z,70.26
2023-01-29T20:23:28.012Z,69.41
2023-01-29T20:28:38.122Z,69.46
2023-01-29T20:33:40.656Z,71.76
2023-01-29T20:38:42.883Z,70.93
2023-01-29T20:43:47.177Z,70.61
2023-01-29T20:48:53.135Z,69.98
2023-01-29T20:53:55.615Z,69.74
2023-01-29T20:58:58.146Z,69.83
2023-01-29T21:04:00.258Z,70.43
2023-01-29T21:09:02.429Z,70.08
2023-01-29T21:14:04.950Z,70.41
2023-01-29T21:19:07.359Z,69.72
2023-01-29T21:24:11.424Z,70.27
2023-01-29T21:29:14.959Z,70.32
2023-01-29T21:34:17.087Z,70.44
2023-01-29T21:39:21.049Z,70.31
2023-01-29T21:44:23.179Z,70.02
2023-01-29T21:49:25.523Z,71.41
2023-01-29T21:54:30.998Z,71.72
2023-01-29T21:59:33.304Z,71.12
2023-01-29T22:04:35.405Z,71.92
2023-01-29T22:09:38.333Z,71.36
2023-01-29T22:14:42.043Z,71.00
2023-01-29T22:19:44.273Z,72.14
2023-01-29T22:24:46.763Z,71.32
2023-01-29T22:29:48.869Z,71.31
2023-01-29T22:34:51.247Z,70.86
2023-01-29T22:39:53.377Z,70.96
2023-01-29T22:44:55.603Z,71.76
2023-01-29T22:49:57.702Z,70.46
2023-01-29T22:54:59.858Z,70.60
2023-01-29T23:00:04.995Z,70.65
2023-01-29T23:05:08.062Z,70.49
2023-01-29T23:10:17.592Z,69.53
2023-01-29T23:15:19.936Z,69.82
2023-01-29T23:20:22.208Z,69.48
2023-01-29T23:25:47.386Z,69.77
2023-01-29T23:30:52.172Z,70.15
2023-01-29T23:35:54.613Z,70.66
2023-01-29T23:40:58.141Z,70.75
2023-01-29T23:46:00.833Z,70.39
2023-01-29T23:51:03.123Z,70.17
2023-01-29T23:56:06.552Z,70.87
